sensor_id;sensor_type;location;lat;lon;timestamp;pressure;altitude;pressure_sealevel;temperature;humidity
39455;BME280;25155;41.890;23.446;2023-07-30T00:00:55;91877.06;;;20.38;45.04
39455;BME280;25155;41.890;23.446;2023-07-30T00:03:23;91875.91;;;20.26;46.50
39455;BME280;25155;41.890;23.446;2023-07-30T00:05:53;91877.84;;;20.17;46.21
39455;BME280;25155;41.890;23.446;2023-07-30T00:08:20;91880.81;;;20.16;45.82
39455;BME280;25155;41.890;23.446;2023-07-30T00:10:47;91880.03;;;20.15;45.69
39455;BME280;25155;41.890;23.446;2023-07-30T00:13:15;91872.41;;;20.14;45.58
39455;BME280;25155;41.890;23.446;2023-07-30T00:15:45;91874.94;;;20.10;45.86
39455;BME280;25155;41.890;23.446;2023-07-30T00:18:13;91876.50;;;20.11;45.51
39455;BME280;25155;41.890;23.446;2023-07-30T00:20:40;91879.00;;;20.07;45.37
39455;BME280;25155;41.890;23.446;2023-07-30T00:23:07;91877.00;;;20.04;45.36
39455;BME280;25155;41.890;23.446;2023-07-30T00:25:34;91883.13;;;19.96;45.33
39455;BME280;25155;41.890;23.446;2023-07-30T00:28:01;91880.94;;;19.98;45.53
39455;BME280;25155;41.890;23.446;2023-07-30T00:30:28;91869.44;;;19.94;45.10
39455;BME280;25155;41.890;23.446;2023-07-30T00:32:57;91875.38;;;19.91;45.33
39455;BME280;25155;41.890;23.446;2023-07-30T00:35:24;91880.69;;;19.91;45.56
39455;BME280;25155;41.890;23.446;2023-07-30T00:37:51;91876.78;;;19.88;45.41
39455;BME280;25155;41.890;23.446;2023-07-30T00:40:18;91875.75;;;19.81;46.36
39455;BME280;25155;41.890;23.446;2023-07-30T00:42:45;91869.41;;;19.73;46.13
39455;BME280;25155;41.890;23.446;2023-07-30T00:45:12;91873.00;;;19.68;45.96
39455;BME280;25155;41.890;23.446;2023-07-30T00:47:40;91869.44;;;19.64;46.51
39455;BME280;25155;41.890;23.446;2023-07-30T00:50:11;91874.91;;;19.59;46.29
39455;BME280;25155;41.890;23.446;2023-07-30T00:52:39;91874.75;;;19.55;46.19
39455;BME280;25155;41.890;23.446;2023-07-30T00:55:07;91871.34;;;19.55;46.07
39455;BME280;25155;41.890;23.446;2023-07-30T00:57:36;91868.28;;;19.44;46.89
39455;BME280;25155;41.890;23.446;2023-07-30T01:00:04;91877.19;;;19.40;46.87
39455;BME280;25155;41.890;23.446;2023-07-30T01:02:35;91873.16;;;19.33;46.58
39455;BME280;25155;41.890;23.446;2023-07-30T01:05:03;91868.97;;;19.32;46.88
39455;BME280;25155;41.890;23.446;2023-07-30T01:07:31;91865.41;;;19.28;47.05
39455;BME280;25155;41.890;23.446;2023-07-30T01:09:59;91867.56;;;19.26;46.94
39455;BME280;25155;41.890;23.446;2023-07-30T01:12:28;91871.97;;;19.22;46.63
39455;BME280;25155;41.890;23.446;2023-07-30T01:14:57;91871.97;;;19.22;46.56
39455;BME280;25155;41.890;23.446;2023-07-30T01:17:25;91859.38;;;19.19;46.57
39455;BME280;25155;41.890;23.446;2023-07-30T01:19:53;91864.22;;;19.17;46.59
39455;BME280;25155;41.890;23.446;2023-07-30T01:22:23;91870.13;;;19.14;46.85
39455;BME280;25155;41.890;23.446;2023-07-30T01:24:51;91868.88;;;19.11;46.65
39455;BME280;25155;41.890;23.446;2023-07-30T01:27:24;91872.94;;;19.09;46.64
39455;BME280;25155;41.890;23.446;2023-07-30T01:29:55;91865.31;;;19.07;46.99
39455;BME280;25155;41.890;23.446;2023-07-30T01:32:25;91871.28;;;18.95;48.18
39455;BME280;25155;41.890;23.446;2023-07-30T01:34:54;91867.56;;;18.88;47.59
39455;BME280;25155;41.890;23.446;2023-07-30T01:37:23;91868.78;;;18.81;47.35
39455;BME280;25155;41.890;23.446;2023-07-30T01:39:51;91868.50;;;18.74;47.98
39455;BME280;25155;41.890;23.446;2023-07-30T01:42:18;91872.06;;;18.70;48.39
39455;BME280;25155;41.890;23.446;2023-07-30T01:44:46;91871.16;;;18.66;47.88
39455;BME280;25155;41.890;23.446;2023-07-30T01:47:13;91876.00;;;18.63;47.86
39455;BME280;25155;41.890;23.446;2023-07-30T01:49:40;91868.19;;;18.58;47.74
39455;BME280;25155;41.890;23.446;2023-07-30T01:52:07;91873.03;;;18.56;47.65
39455;BME280;25155;41.890;23.446;2023-07-30T01:54:35;91872.13;;;18.52;47.72
39455;BME280;25155;41.890;23.446;2023-07-30T01:57:03;91872.13;;;18.52;47.92
39455;BME280;25155;41.890;23.446;2023-07-30T01:59:30;91878.47;;;18.51;47.95
39455;BME280;25155;41.890;23.446;2023-07-30T02:01:57;91874.28;;;18.50;48.39
39455;BME280;25155;41.890;23.446;2023-07-30T02:04:25;91876.00;;;18.46;47.91
39455;BME280;25155;41.890;23.446;2023-07-30T02:06:52;91876.94;;;18.41;48.04
39455;BME280;25155;41.890;23.446;2023-07-30T02:09:19;91879.41;;;18.38;48.11
39455;BME280;25155;41.890;23.446;2023-07-30T02:11:48;91872.44;;;18.33;47.80
39455;BME280;25155;41.890;23.446;2023-07-30T02:14:17;91879.13;;;18.31;47.86
39455;BME280;25155;41.890;23.446;2023-07-30T02:16:45;91883.91;;;18.29;47.45
39455;BME280;25155;41.890;23.446;2023-07-30T02:19:12;91880.03;;;18.26;47.77
39455;BME280;25155;41.890;23.446;2023-07-30T02:21:39;91880.03;;;18.26;47.78
39455;BME280;25155;41.890;23.446;2023-07-30T02:24:08;91879.59;;;18.24;47.88
39455;BME280;25155;41.890;23.446;2023-07-30T02:26:37;91875.69;;;18.21;47.80
39455;BME280;25155;41.890;23.446;2023-07-30T02:29:06;91878.78;;;18.15;47.78
39455;BME280;25155;41.890;23.446;2023-07-30T02:31:33;91876.31;;;18.18;47.77
39455;BME280;25155;41.890;23.446;2023-07-30T02:34:00;91878.78;;;18.15;49.31
39455;BME280;25155;41.890;23.446;2023-07-30T02:36:27;91882.50;;;18.05;50.27
39455;BME280;25155;41.890;23.446;2023-07-30T02:38:54;91887.03;;;17.96;50.49
39455;BME280;25155;41.890;23.446;2023-07-30T02:41:21;91889.78;;;17.91;49.73
39455;BME280;25155;41.890;23.446;2023-07-30T02:43:49;91893.84;;;17.88;49.64
39455;BME280;25155;41.890;23.446;2023-07-30T02:46:17;91894.72;;;17.83;49.57
39455;BME280;25155;41.890;23.446;2023-07-30T02:48:44;91892.09;;;17.83;48.97
39455;BME280;25155;41.890;23.446;2023-07-30T02:51:11;91887.88;;;17.82;48.86
39455;BME280;25155;41.890;23.446;2023-07-30T02:53:38;91891.63;;;17.81;48.96
39455;BME280;25155;41.890;23.446;2023-07-30T02:56:05;91896.91;;;17.81;48.71
39455;BME280;25155;41.890;23.446;2023-07-30T02:58:32;91896.13;;;17.81;48.93
39455;BME280;25155;41.890;23.446;2023-07-30T03:01:05;91898.56;;;17.77;48.76
39455;BME280;25155;41.890;23.446;2023-07-30T03:03:35;91897.03;;;17.76;48.90
39455;BME280;25155;41.890;23.446;2023-07-30T03:06:02;91905.25;;;17.75;48.88
39455;BME280;25155;41.890;23.446;2023-07-30T03:08:29;91908.66;;;17.66;50.75
39455;BME280;25155;41.890;23.446;2023-07-30T03:10:58;91911.56;;;17.56;50.64
39455;BME280;25155;41.890;23.446;2023-07-30T03:13:25;91910.00;;;17.55;50.10
39455;BME280;25155;41.890;23.446;2023-07-30T03:15:53;91911.88;;;17.55;50.32
39455;BME280;25155;41.890;23.446;2023-07-30T03:18:20;91915.91;;;17.52;49.59
39455;BME280;25155;41.890;23.446;2023-07-30T03:20:48;91913.09;;;17.48;49.91
39455;BME280;25155;41.890;23.446;2023-07-30T03:23:15;91905.94;;;17.49;49.63
39455;BME280;25155;41.890;23.446;2023-07-30T03:25:42;91912.31;;;17.48;49.96
39455;BME280;25155;41.890;23.446;2023-07-30T03:28:10;91914.97;;;17.48;49.47
39455;BME280;25155;41.890;23.446;2023-07-30T03:30:37;91912.13;;;17.44;49.65
39455;BME280;25155;41.890;23.446;2023-07-30T03:33:04;91905.31;;;17.43;49.67
39455;BME280;25155;41.890;23.446;2023-07-30T03:35:31;91909.34;;;17.41;49.44
39455;BME280;25155;41.890;23.446;2023-07-30T03:38:00;91915.22;;;17.38;49.65
39455;BME280;25155;41.890;23.446;2023-07-30T03:40:27;91912.28;;;17.39;49.48
39455;BME280;25155;41.890;23.446;2023-07-30T03:42:54;91908.09;;;17.38;49.75
39455;BME280;25155;41.890;23.446;2023-07-30T03:45:21;91904.66;;;17.38;49.46
39455;BME280;25155;41.890;23.446;2023-07-30T03:47:48;91910.28;;;17.36;49.82
39455;BME280;25155;41.890;23.446;2023-07-30T03:50:15;91904.50;;;17.34;50.54
39455;BME280;25155;41.890;23.446;2023-07-30T03:52:43;91903.22;;;17.23;51.66
39455;BME280;25155;41.890;23.446;2023-07-30T03:55:11;91905.97;;;17.09;51.74
39455;BME280;25155;41.890;23.446;2023-07-30T03:57:38;91909.19;;;17.06;51.50
39455;BME280;25155;41.890;23.446;2023-07-30T04:00:06;91905.31;;;17.03;51.07
39455;BME280;25155;41.890;23.446;2023-07-30T04:02:35;91905.31;;;17.03;50.97
39455;BME280;25155;41.890;23.446;2023-07-30T04:05:02;91903.44;;;17.04;51.17
39455;BME280;25155;41.890;23.446;2023-07-30T04:07:29;91902.38;;;17.05;50.58
39455;BME280;25155;41.890;23.446;2023-07-30T04:09:56;91902.38;;;17.05;50.98
39455;BME280;25155;41.890;23.446;2023-07-30T04:12:25;91903.91;;;17.06;50.61
39455;BME280;25155;41.890;23.446;2023-07-30T04:14:52;91910.47;;;17.08;51.07
39455;BME280;25155;41.890;23.446;2023-07-30T04:17:19;91908.59;;;17.09;50.74
39455;BME280;25155;41.890;23.446;2023-07-30T04:19:46;91910.16;;;17.10;50.80
39455;BME280;25155;41.890;23.446;2023-07-30T04:22:13;91913.56;;;17.10;51.28
39455;BME280;25155;41.890;23.446;2023-07-30T04:24:40;91913.25;;;17.12;51.03
39455;BME280;25155;41.890;23.446;2023-07-30T04:27:07;91917.75;;;17.11;51.34
39455;BME280;25155;41.890;23.446;2023-07-30T04:29:36;91929.25;;;17.15;50.94
39455;BME280;25155;41.890;23.446;2023-07-30T04:32:04;91923.38;;;17.19;51.16
39455;BME280;25155;41.890;23.446;2023-07-30T04:34:31;91920.13;;;17.22;51.55
39455;BME280;25155;41.890;23.446;2023-07-30T04:36:58;91924.78;;;17.25;51.67
39455;BME280;25155;41.890;23.446;2023-07-30T04:39:25;91926.34;;;17.26;52.04
39455;BME280;25155;41.890;23.446;2023-07-30T04:41:52;91922.63;;;17.27;52.53
39455;BME280;25155;41.890;23.446;2023-07-30T04:44:19;91922.63;;;17.27;52.50
39455;BME280;25155;41.890;23.446;2023-07-30T04:46:48;91924.66;;;17.30;52.33
39455;BME280;25155;41.890;23.446;2023-07-30T04:49:15;91924.81;;;17.33;51.92
39455;BME280;25155;41.890;23.446;2023-07-30T04:51:42;91905.31;;;17.34;51.98
39455;BME280;25155;41.890;23.446;2023-07-30T04:54:09;91922.06;;;17.39;53.10
39455;BME280;25155;41.890;23.446;2023-07-30T04:56:36;91923.31;;;17.41;53.41
39455;BME280;25155;41.890;23.446;2023-07-30T04:59:04;91929.06;;;17.43;53.47
39455;BME280;25155;41.890;23.446;2023-07-30T05:01:31;91923.19;;;17.46;53.93
39455;BME280;25155;41.890;23.446;2023-07-30T05:03:59;91923.19;;;17.46;55.25
39455;BME280;25155;41.890;23.446;2023-07-30T05:06:26;91925.22;;;17.49;56.50
39455;BME280;25155;41.890;23.446;2023-07-30T05:08:53;91919.78;;;17.55;56.45
39455;BME280;25155;41.890;23.446;2023-07-30T05:11:21;91923.53;;;17.62;56.28
39455;BME280;25155;41.890;23.446;2023-07-30T05:13:49;91917.34;;;17.67;55.60
39455;BME280;25155;41.890;23.446;2023-07-30T05:16:17;91919.22;;;17.75;55.70
39455;BME280;25155;41.890;23.446;2023-07-30T05:18:45;91922.81;;;17.79;55.16
39455;BME280;25155;41.890;23.446;2023-07-30T05:21:13;91920.50;;;17.86;55.43
39455;BME280;25155;41.890;23.446;2023-07-30T05:23:40;91916.16;;;17.91;55.41
39455;BME280;25155;41.890;23.446;2023-07-30T05:26:07;91912.63;;;17.95;56.27
39455;BME280;25155;41.890;23.446;2023-07-30T05:28:34;91914.34;;;18.00;56.38
39455;BME280;25155;41.890;23.446;2023-07-30T05:31:01;91910.78;;;18.04;55.84
39455;BME280;25155;41.890;23.446;2023-07-30T05:33:28;91918.69;;;18.13;55.57
39455;BME280;25155;41.890;23.446;2023-07-30T05:35:56;91917.47;;;18.19;55.74
39455;BME280;25155;41.890;23.446;2023-07-30T05:38:24;91922.13;;;18.22;56.03
39455;BME280;25155;41.890;23.446;2023-07-30T05:40:51;91921.50;;;18.25;55.41
39455;BME280;25155;41.890;23.446;2023-07-30T05:43:19;91918.09;;;18.34;55.38
39455;BME280;25155;41.890;23.446;2023-07-30T05:45:46;91918.41;;;18.41;55.60
39455;BME280;25155;41.890;23.446;2023-07-30T05:48:13;91915.00;;;18.49;55.13
39455;BME280;25155;41.890;23.446;2023-07-30T05:50:40;91913.75;;;18.55;55.66
39455;BME280;25155;41.890;23.446;2023-07-30T05:53:07;91918.38;;;18.58;55.45
39455;BME280;25155;41.890;23.446;2023-07-30T05:55:36;91918.88;;;18.60;55.97
39455;BME280;25155;41.890;23.446;2023-07-30T05:58:03;91918.09;;;18.69;55.99
39455;BME280;25155;41.890;23.446;2023-07-30T06:00:30;91921.03;;;18.76;55.60
39455;BME280;25155;41.890;23.446;2023-07-30T06:02:57;91916.34;;;18.81;56.02
39455;BME280;25155;41.890;23.446;2023-07-30T06:05:24;91915.56;;;18.90;55.85
39455;BME280;25155;41.890;23.446;2023-07-30T06:07:51;91921.63;;;18.99;55.15
39455;BME280;25155;41.890;23.446;2023-07-30T06:10:18;91923.16;;;19.09;55.26
39455;BME280;25155;41.890;23.446;2023-07-30T06:12:47;91917.72;;;19.14;54.47
39455;BME280;25155;41.890;23.446;2023-07-30T06:15:14;91916.59;;;19.24;54.68
39455;BME280;25155;41.890;23.446;2023-07-30T06:17:41;91910.97;;;19.34;54.83
39455;BME280;25155;41.890;23.446;2023-07-30T06:20:09;91914.50;;;19.47;54.04
39455;BME280;25155;41.890;23.446;2023-07-30T06:22:36;91917.41;;;19.54;53.74
39455;BME280;25155;41.890;23.446;2023-07-30T06:25:04;91916.59;;;19.62;53.89
39455;BME280;25155;41.890;23.446;2023-07-30T06:27:31;91912.50;;;19.73;53.57
39455;BME280;25155;41.890;23.446;2023-07-30T06:30:00;91915.91;;;19.83;52.74
39455;BME280;25155;41.890;23.446;2023-07-30T06:32:27;91914.91;;;19.96;52.13
39455;BME280;25155;41.890;23.446;2023-07-30T06:34:54;91912.50;;;20.03;52.20
39455;BME280;25155;41.890;23.446;2023-07-30T06:37:21;91910.59;;;20.13;51.58
39455;BME280;25155;41.890;23.446;2023-07-30T06:39:49;91912.97;;;20.26;52.00
39455;BME280;25155;41.890;23.446;2023-07-30T06:42:16;91895.28;;;20.39;51.47
39455;BME280;25155;41.890;23.446;2023-07-30T06:44:43;91894.56;;;20.51;50.77
39455;BME280;25155;41.890;23.446;2023-07-30T06:47:11;91887.66;;;20.59;50.44
39455;BME280;25155;41.890;23.446;2023-07-30T06:49:38;91881.97;;;20.69;50.37
39455;BME280;25155;41.890;23.446;2023-07-30T06:52:06;91879.69;;;20.80;50.01
39455;BME280;25155;41.890;23.446;2023-07-30T06:54:33;91878.50;;;20.90;50.13
39455;BME280;25155;41.890;23.446;2023-07-30T06:57:00;91873.56;;;21.00;49.53
39455;BME280;25155;41.890;23.446;2023-07-30T06:59:27;91874.22;;;21.10;48.57
39455;BME280;25155;41.890;23.446;2023-07-30T07:01:54;91872.59;;;21.17;48.65
39455;BME280;25155;41.890;23.446;2023-07-30T07:04:23;91867.97;;;21.27;48.75
39455;BME280;25155;41.890;23.446;2023-07-30T07:06:50;91871.41;;;21.39;48.42
39455;BME280;25155;41.890;23.446;2023-07-30T07:09:17;91866.25;;;21.55;48.59
39455;BME280;25155;41.890;23.446;2023-07-30T07:11:44;91864.03;;;21.70;48.11
39455;BME280;25155;41.890;23.446;2023-07-30T07:14:11;91866.78;;;21.86;48.48
39455;BME280;25155;41.890;23.446;2023-07-30T07:16:38;91868.63;;;21.98;47.58
39455;BME280;25155;41.890;23.446;2023-07-30T07:19:05;91859.09;;;22.09;47.12
39455;BME280;25155;41.890;23.446;2023-07-30T07:21:34;91857.97;;;22.22;47.04
39455;BME280;25155;41.890;23.446;2023-07-30T07:24:01;91834.50;;;22.24;46.86
39455;BME280;25155;41.890;23.446;2023-07-30T07:26:28;91835.50;;;22.32;45.91
39455;BME280;25155;41.890;23.446;2023-07-30T07:28:55;91849.28;;;22.50;44.98
39455;BME280;25155;41.890;23.446;2023-07-30T07:31:22;91843.56;;;22.64;46.30
39455;BME280;25155;41.890;23.446;2023-07-30T07:33:50;91844.19;;;22.73;44.93
39455;BME280;25155;41.890;23.446;2023-07-30T07:36:17;91842.84;;;22.79;44.02
39455;BME280;25155;41.890;23.446;2023-07-30T07:38:45;91841.56;;;22.89;44.94
39455;BME280;25155;41.890;23.446;2023-07-30T07:41:14;91842.25;;;23.02;44.45
39455;BME280;25155;41.890;23.446;2023-07-30T07:43:42;91841.88;;;23.16;43.99
39455;BME280;25155;41.890;23.446;2023-07-30T07:46:09;91841.09;;;23.31;44.47
39455;BME280;25155;41.890;23.446;2023-07-30T07:48:39;91832.78;;;23.49;44.57
39455;BME280;25155;41.890;23.446;2023-07-30T07:51:07;91836.53;;;23.64;43.16
39455;BME280;25155;41.890;23.446;2023-07-30T07:53:34;91835.66;;;23.75;41.72
39455;BME280;25155;41.890;23.446;2023-07-30T07:56:03;91833.59;;;23.85;42.77
39455;BME280;25155;41.890;23.446;2023-07-30T07:58:30;91831.09;;;23.92;42.31
39455;BME280;25155;41.890;23.446;2023-07-30T08:00:58;91827.88;;;24.02;42.28
39455;BME280;25155;41.890;23.446;2023-07-30T08:03:25;91826.28;;;24.17;42.53
39455;BME280;25155;41.890;23.446;2023-07-30T08:05:53;91825.44;;;24.32;42.11
39455;BME280;25155;41.890;23.446;2023-07-30T08:08:20;91816.28;;;24.49;42.02
39455;BME280;25155;41.890;23.446;2023-07-30T08:10:47;91813.50;;;24.62;41.98
39455;BME280;25155;41.890;23.446;2023-07-30T08:13:16;91816.63;;;24.67;41.63
39455;BME280;25155;41.890;23.446;2023-07-30T08:15:43;91805.47;;;24.81;42.55
39455;BME280;25155;41.890;23.446;2023-07-30T08:18:10;91814.53;;;25.00;43.13
39455;BME280;25155;41.890;23.446;2023-07-30T08:20:38;91805.28;;;25.17;42.11
39455;BME280;25155;41.890;23.446;2023-07-30T08:23:05;91799.88;;;25.33;43.06
39455;BME280;25155;41.890;23.446;2023-07-30T08:25:32;91793.50;;;25.41;41.86
39455;BME280;25155;41.890;23.446;2023-07-30T08:28:00;91793.44;;;25.60;41.40
39455;BME280;25155;41.890;23.446;2023-07-30T08:30:28;91791.66;;;25.72;40.41
39455;BME280;25155;41.890;23.446;2023-07-30T08:32:55;91785.75;;;25.86;40.86
39455;BME280;25155;41.890;23.446;2023-07-30T08:35:22;91778.34;;;25.99;40.09
39455;BME280;25155;41.890;23.446;2023-07-30T08:37:50;91776.50;;;26.06;40.00
39455;BME280;25155;41.890;23.446;2023-07-30T08:40:17;91775.50;;;26.18;40.17
39455;BME280;25155;41.890;23.446;2023-07-30T08:42:44;91780.28;;;26.36;41.08
39455;BME280;25155;41.890;23.446;2023-07-30T08:45:11;91769.03;;;26.53;41.45
39455;BME280;25155;41.890;23.446;2023-07-30T08:47:41;91759.22;;;26.64;40.10
39455;BME280;25155;41.890;23.446;2023-07-30T08:50:08;91762.03;;;26.75;39.24
39455;BME280;25155;41.890;23.446;2023-07-30T08:52:36;91760.97;;;26.83;38.99
39455;BME280;25155;41.890;23.446;2023-07-30T08:55:05;91760.69;;;26.96;40.79
39455;BME280;25155;41.890;23.446;2023-07-30T08:57:32;91757.41;;;27.13;40.41
39455;BME280;25155;41.890;23.446;2023-07-30T09:00:03;91749.81;;;27.22;38.54
39455;BME280;25155;41.890;23.446;2023-07-30T09:02:34;91748.69;;;27.27;37.89
39455;BME280;25155;41.890;23.446;2023-07-30T09:05:06;91754.19;;;27.38;38.16
39455;BME280;25155;41.890;23.446;2023-07-30T09:07:33;91742.03;;;27.55;39.10
39455;BME280;25155;41.890;23.446;2023-07-30T09:10:03;91743.28;;;27.68;37.20
39455;BME280;25155;41.890;23.446;2023-07-30T09:12:30;91730.69;;;27.76;37.26
39455;BME280;25155;41.890;23.446;2023-07-30T09:14:58;91732.66;;;27.90;38.77
39455;BME280;25155;41.890;23.446;2023-07-30T09:17:25;91725.88;;;28.03;36.66
39455;BME280;25155;41.890;23.446;2023-07-30T09:19:52;91730.91;;;28.15;36.92
39455;BME280;25155;41.890;23.446;2023-07-30T09:22:24;91725.56;;;28.23;36.26
39455;BME280;25155;41.890;23.446;2023-07-30T09:24:52;91720.25;;;28.37;35.91
39455;BME280;25155;41.890;23.446;2023-07-30T09:27:21;91716.44;;;28.45;35.26
39455;BME280;25155;41.890;23.446;2023-07-30T09:29:50;91713.41;;;28.54;35.77
39455;BME280;25155;41.890;23.446;2023-07-30T09:32:18;91708.84;;;28.73;36.63
39455;BME280;25155;41.890;23.446;2023-07-30T09:34:45;91705.44;;;28.86;35.81
39455;BME280;25155;41.890;23.446;2023-07-30T09:37:13;91703.91;;;29.07;36.25
39455;BME280;25155;41.890;23.446;2023-07-30T09:39:43;91700.06;;;29.22;36.79
39455;BME280;25155;41.890;23.446;2023-07-30T09:42:10;91696.25;;;29.41;36.04
39455;BME280;25155;41.890;23.446;2023-07-30T09:44:37;91697.75;;;29.53;35.82
39455;BME280;25155;41.890;23.446;2023-07-30T09:47:09;91701.56;;;29.67;36.39
39455;BME280;25155;41.890;23.446;2023-07-30T09:49:36;91688.13;;;29.81;35.93
39455;BME280;25155;41.890;23.446;2023-07-30T09:52:04;91686.13;;;29.99;35.37
39455;BME280;25155;41.890;23.446;2023-07-30T09:54:32;91684.91;;;30.15;36.21
39455;BME280;25155;41.890;23.446;2023-07-30T09:57:03;91684.09;;;30.29;36.38
39455;BME280;25155;41.890;23.446;2023-07-30T09:59:30;91682.91;;;30.41;33.50
39455;BME280;25155;41.890;23.446;2023-07-30T10:01:58;91678.22;;;30.48;34.37
39455;BME280;25155;41.890;23.446;2023-07-30T10:04:27;91685.84;;;30.61;35.07
39455;BME280;25155;41.890;23.446;2023-07-30T10:06:58;91682.75;;;30.66;33.88
39455;BME280;25155;41.890;23.446;2023-07-30T10:09:32;91676.19;;;30.70;33.48
39455;BME280;25155;41.890;23.446;2023-07-30T10:12:02;91675.38;;;30.77;33.90
39455;BME280;25155;41.890;23.446;2023-07-30T10:14:31;91672.91;;;30.34;32.63
39455;BME280;25155;41.890;23.446;2023-07-30T10:17:00;91670.47;;;30.61;32.78
39455;BME280;25155;41.890;23.446;2023-07-30T10:19:28;91672.28;;;30.79;32.65
39455;BME280;25155;41.890;23.446;2023-07-30T10:22:18;91664.22;;;30.79;30.50
39455;BME280;25155;41.890;23.446;2023-07-30T10:24:56;91659.66;;;30.68;28.37
39455;BME280;25155;41.890;23.446;2023-07-30T10:27:26;91661.94;;;30.70;28.97
39455;BME280;25155;41.890;23.446;2023-07-30T10:30:12;91658.59;;;30.55;27.89
39455;BME280;25155;41.890;23.446;2023-07-30T10:48:56;91639.34;;;31.58;26.43
39455;BME280;25155;41.890;23.446;2023-07-30T10:51:23;91636.81;;;31.36;29.08
39455;BME280;25155;41.890;23.446;2023-07-30T10:53:51;91632.25;;;31.33;27.96
39455;BME280;25155;41.890;23.446;2023-07-30T10:56:22;91628.53;;;31.20;26.71
39455;BME280;25155;41.890;23.446;2023-07-30T10:58:52;91627.69;;;31.23;27.17
39455;BME280;25155;41.890;23.446;2023-07-30T11:01:19;91626.03;;;31.36;27.54
39455;BME280;25155;41.890;23.446;2023-07-30T11:03:48;91632.88;;;31.44;27.23
39455;BME280;25155;41.890;23.446;2023-07-30T11:06:23;91622.91;;;31.41;27.41
39455;BME280;25155;41.890;23.446;2023-07-30T11:08:50;91622.19;;;31.37;26.13
39455;BME280;25155;41.890;23.446;2023-07-30T11:11:17;91622.97;;;31.34;26.22
39455;BME280;25155;41.890;23.446;2023-07-30T11:13:46;91623.94;;;31.17;25.23
39455;BME280;25155;41.890;23.446;2023-07-30T11:16:14;91622.69;;;31.25;26.37
39455;BME280;25155;41.890;23.446;2023-07-30T11:18:43;91614.19;;;31.30;25.81
39455;BME280;25155;41.890;23.446;2023-07-30T11:21:13;91620.00;;;31.25;26.18
39455;BME280;25155;41.890;23.446;2023-07-30T11:23:44;91615.41;;;31.22;25.57
39455;BME280;25155;41.890;23.446;2023-07-30T11:26:14;91616.22;;;31.19;25.66
39455;BME280;25155;41.890;23.446;2023-07-30T11:28:43;91607.59;;;31.31;26.37
39455;BME280;25155;41.890;23.446;2023-07-30T11:31:11;91599.53;;;31.31;25.75
39455;BME280;25155;41.890;23.446;2023-07-30T11:33:41;91604.13;;;31.34;26.53
39455;BME280;25155;41.890;23.446;2023-07-30T11:36:11;91595.75;;;31.25;25.28
39455;BME280;25155;41.890;23.446;2023-07-30T11:38:39;91584.69;;;31.16;25.78
39455;BME280;25155;41.890;23.446;2023-07-30T11:41:10;91589.31;;;31.15;25.61
39455;BME280;25155;41.890;23.446;2023-07-30T11:43:38;91584.59;;;31.23;27.28
39455;BME280;25155;41.890;23.446;2023-07-30T11:46:09;91586.34;;;31.40;26.77
39455;BME280;25155;41.890;23.446;2023-07-30T11:48:38;91582.75;;;31.54;26.43
39455;BME280;25155;41.890;23.446;2023-07-30T11:51:06;91584.97;;;31.63;26.24
39455;BME280;25155;41.890;23.446;2023-07-30T11:53:46;91586.59;;;31.57;26.17
39455;BME280;25155;41.890;23.446;2023-07-30T11:56:21;91573.56;;;31.52;25.53
39455;BME280;25155;41.890;23.446;2023-07-30T11:58:49;91566.03;;;31.32;25.41
39455;BME280;25155;41.890;23.446;2023-07-30T12:01:17;91564.41;;;31.42;26.21
39455;BME280;25155;41.890;23.446;2023-07-30T12:03:45;91569.03;;;31.41;25.33
39455;BME280;25155;41.890;23.446;2023-07-30T12:06:13;91571.72;;;31.41;25.85
39455;BME280;25155;41.890;23.446;2023-07-30T12:08:40;91567.59;;;31.30;25.68
39455;BME280;25155;41.890;23.446;2023-07-30T12:11:08;91571.50;;;31.25;26.32
39455;BME280;25155;41.890;23.446;2023-07-30T12:13:44;91557.16;;;31.35;26.71
39455;BME280;25155;41.890;23.446;2023-07-30T12:16:12;91548.97;;;31.42;26.58
39455;BME280;25155;41.890;23.446;2023-07-30T12:18:39;91553.56;;;31.45;26.46
39455;BME280;25155;41.890;23.446;2023-07-30T12:21:07;91539.97;;;31.60;26.62
39455;BME280;25155;41.890;23.446;2023-07-30T12:23:37;91539.53;;;31.65;26.56
39455;BME280;25155;41.890;23.446;2023-07-30T12:26:04;91543.31;;;31.68;26.21
39455;BME280;25155;41.890;23.446;2023-07-30T12:28:32;91532.19;;;31.66;26.53
39455;BME280;25155;41.890;23.446;2023-07-30T12:31:01;91541.66;;;31.77;27.52
39455;BME280;25155;41.890;23.446;2023-07-30T12:33:28;91533.50;;;31.85;27.38
39455;BME280;25155;41.890;23.446;2023-07-30T12:35:55;91529.88;;;31.95;26.60
39455;BME280;25155;41.890;23.446;2023-07-30T12:38:22;91527.44;;;32.04;26.71
39455;BME280;25155;41.890;23.446;2023-07-30T12:40:49;91528.19;;;32.08;26.62
39455;BME280;25155;41.890;23.446;2023-07-30T12:43:17;91525.66;;;31.94;25.50
39455;BME280;25155;41.890;23.446;2023-07-30T12:45:46;91529.94;;;31.91;25.76
39455;BME280;25155;41.890;23.446;2023-07-30T12:48:14;91527.25;;;31.91;25.92
39455;BME280;25155;41.890;23.446;2023-07-30T12:50:41;91519.78;;;31.99;25.92
39455;BME280;25155;41.890;23.446;2023-07-30T12:53:08;91515.13;;;32.03;26.35
39455;BME280;25155;41.890;23.446;2023-07-30T12:55:35;91511.94;;;32.12;26.74
39455;BME280;25155;41.890;23.446;2023-07-30T12:58:03;91514.13;;;32.21;26.24
39455;BME280;25155;41.890;23.446;2023-07-30T13:00:31;91511.13;;;32.15;26.11
39455;BME280;25155;41.890;23.446;2023-07-30T13:02:58;91509.44;;;32.25;26.12
39455;BME280;25155;41.890;23.446;2023-07-30T13:05:27;91509.72;;;32.30;26.37
39455;BME280;25155;41.890;23.446;2023-07-30T13:07:54;91491.84;;;32.40;26.61
39455;BME280;25155;41.890;23.446;2023-07-30T13:10:21;91490.75;;;32.37;26.07